KEWK

Newton-City-County Airport

Newton, Kansas, USA
METAR KEWK 231456Z AUTO 19011KT 10SM CLR 26/20 A3010 RMK AO2 SLP179 T02610200 51013
Observed Flight Rules
May-23 @ 14:56 UTC (13 minutes ago) Visual Flight Rules
Wind Visibility Clouds
190° at 11 knots 10 miles
  • Clear skies
Temperatures Readings
Current 26°C / 79°F
Dewpoint 20°C / 68°F
Humidity 70%
Altimeter 30.1" Hg
Pressure 1017.9 hPa
Elevation 467
METAR KEWK 231456Z AUTO 19011KT 10SM CLR 26/20 A3010 RMK AO2 SLP179 T02610200 51013
Observed Flight Rules
May-23 @ 14:56 UTC
(13 minutes ago)
VFR
Wind Visibility
190° at 11 knots 10 miles
Clouds
  • Clear skies
Temperature Dewpoint
26°C / 79°F 20°C / 68°F
Humidity Altimeter Pressure
70% 30.1" Hg 1017.9 hPa